Time,TemperatureF,DewpointF,PressureIn,WindDirection,WindDirectionDegrees,WindSpeedMPH,WindSpeedGustMPH,Humidity,HourlyPrecipIn,Conditions,Clouds,dailyrainin,SoftwareType,DateUTC
2013-09-13 00:14:00,65.7,65.1,29.60,SW,225,0.0,-999.0,98,-99.99,,,0.00,Acu-Link.com,2013-09-13 04:14:00,
2013-09-13 00:30:00,65.3,65.0,29.58,SSE,157,1.6,-999.0,99,-99.99,,,0.16,Acu-Link.com,2013-09-13 04:30:00,
2013-09-13 00:45:00,65.1,64.8,29.57,WSW,247,0.0,-999.0,99,-99.99,,,0.17,Acu-Link.com,2013-09-13 04:45:00,
2013-09-13 01:00:00,64.9,64.7,29.55,SE,135,0.0,-999.0,99,-99.99,,,0.19,Acu-Link.com,2013-09-13 05:00:00,
2013-09-13 01:15:00,64.8,64.5,29.55,NNE,22,0.0,-999.0,99,-99.99,,,0.19,Acu-Link.com,2013-09-13 05:15:00,
2013-09-13 01:30:00,64.8,64.5,29.55,West,270,0.0,-999.0,99,-99.99,,,0.19,Acu-Link.com,2013-09-13 05:30:00,
2013-09-13 01:46:00,64.6,64.3,29.56,SW,225,0.0,-999.0,99,-99.99,,,0.19,Acu-Link.com,2013-09-13 05:46:00,
2013-09-13 02:01:00,64.4,64.1,29.56,WSW,247,0.0,-999.0,99,-99.99,,,0.19,Acu-Link.com,2013-09-13 06:01:00,
2013-09-13 02:16:00,64.4,64.1,29.56,SSW,202,0.0,-999.0,99,-99.99,,,0.19,Acu-Link.com,2013-09-13 06:16:00,
2013-09-13 02:31:00,64.4,64.1,29.56,West,270,0.0,-999.0,99,-99.99,,,0.19,Acu-Link.com,2013-09-13 06:31:00,
2013-09-13 02:47:00,64.4,64.1,29.56,SSW,202,0.0,-999.0,99,-99.99,,,0.19,Acu-Link.com,2013-09-13 06:47:00,
2013-09-13 03:02:00,64.4,64.1,29.56,West,270,0.0,-999.0,99,-99.99,,,0.19,Acu-Link.com,2013-09-13 07:02:00,
2013-09-13 03:17:00,64.4,64.1,29.55,SSW,202,0.0,-999.0,99,-99.99,,,0.19,Acu-Link.com,2013-09-13 07:17:00,
2013-09-13 03:32:00,64.6,64.3,29.54,SSE,157,0.0,-999.0,99,-99.99,,,0.19,Acu-Link.com,2013-09-13 07:32:00,
2013-09-13 03:47:00,64.8,64.5,29.54,NNE,22,1.6,-999.0,99,-99.99,,,0.19,Acu-Link.com,2013-09-13 07:47:00,
2013-09-13 04:03:00,64.8,64.5,29.54,West,270,0.0,-999.0,99,-99.99,,,0.19,Acu-Link.com,2013-09-13 08:03:00,
2013-09-13 04:18:00,64.8,64.5,29.54,NNE,22,0.0,-999.0,99,-99.99,,,0.19,Acu-Link.com,2013-09-13 08:18:00,
2013-09-13 04:33:00,64.9,64.7,29.54,SW,225,0.0,-999.0,99,-99.99,,,0.19,Acu-Link.com,2013-09-13 08:33:00,
2013-09-13 04:48:00,64.9,64.7,29.54,NNE,22,0.0,-999.0,99,-99.99,,,0.19,Acu-Link.com,2013-09-13 08:48:00,
2013-09-13 05:03:00,64.8,64.5,29.54,WNW,292,0.0,-999.0,99,-99.99,,,0.19,Acu-Link.com,2013-09-13 09:03:00,
2013-09-13 05:18:00,64.6,64.3,29.54,SSW,202,0.0,-999.0,99,-99.99,,,0.20,Acu-Link.com,2013-09-13 09:18:00,
2013-09-13 05:34:00,64.4,64.1,29.53,SW,225,0.0,-999.0,99,-99.99,,,0.20,Acu-Link.com,2013-09-13 09:34:00,
2013-09-13 05:49:00,64.4,64.1,29.54,SW,225,0.0,-999.0,99,-99.99,,,0.20,Acu-Link.com,2013-09-13 09:49:00,
2013-09-13 06:04:00,64.4,64.1,29.54,NE,45,0.0,-999.0,99,-99.99,,,0.20,Acu-Link.com,2013-09-13 10:04:00,
2013-09-13 06:19:00,64.2,63.9,29.54,SSW,202,0.0,-999.0,99,-99.99,,,0.20,Acu-Link.com,2013-09-13 10:19:00,
2013-09-13 06:34:00,64.2,63.9,29.55,North,0,0.0,-999.0,99,-99.99,,,0.20,Acu-Link.com,2013-09-13 10:34:00,
2013-09-13 06:49:00,64.2,63.9,29.55,North,0,0.0,-999.0,99,-99.99,,,0.20,Acu-Link.com,2013-09-13 10:49:00,
2013-09-13 07:04:00,64.2,63.9,29.55,SSW,202,0.0,-999.0,99,-99.99,,,0.21,Acu-Link.com,2013-09-13 11:04:00,
2013-09-13 07:20:00,64.4,64.1,29.55,SW,225,0.0,-999.0,99,-99.99,,,0.21,Acu-Link.com,2013-09-13 11:20:00,
2013-09-13 07:35:00,64.8,64.5,29.55,SSW,202,0.0,-999.0,99,-99.99,,,0.22,Acu-Link.com,2013-09-13 11:35:00,
2013-09-13 07:50:00,65.1,64.8,29.55,WNW,292,0.0,-999.0,99,-99.99,,,0.22,Acu-Link.com,2013-09-13 11:50:00,
2013-09-13 08:05:00,65.3,65.0,29.55,WNW,292,0.0,-999.0,99,-99.99,,,0.22,Acu-Link.com,2013-09-13 12:05:00,
2013-09-13 08:20:00,65.3,65.0,29.54,NW,315,0.0,-999.0,99,-99.99,,,0.22,Acu-Link.com,2013-09-13 12:20:00,
2013-09-13 08:36:00,65.8,65.6,29.54,SW,225,0.0,-999.0,99,-99.99,,,0.24,Acu-Link.com,2013-09-13 12:36:00,
2013-09-13 08:51:00,66.6,66.3,29.54,West,270,0.0,-999.0,99,-99.99,,,0.26,Acu-Link.com,2013-09-13 12:51:00,
2013-09-13 09:06:00,66.9,66.0,29.54,NE,45,1.1,-999.0,97,-99.99,,,0.26,Acu-Link.com,2013-09-13 13:06:00,
2013-09-13 09:21:00,67.8,66.6,29.54,SSW,202,1.1,-999.0,96,-99.99,,,0.26,Acu-Link.com,2013-09-13 13:21:00,
2013-09-13 09:37:00,68.9,67.1,29.54,SW,225,0.0,-999.0,94,-99.99,,,0.26,Acu-Link.com,2013-09-13 13:37:00,
2013-09-13 09:52:00,69.4,67.6,29.54,WSW,247,0.0,-999.0,94,-99.99,,,0.26,Acu-Link.com,2013-09-13 13:52:00,
2013-09-13 10:07:00,70.2,67.7,29.55,WSW,247,0.0,-999.0,92,-99.99,,,0.26,Acu-Link.com,2013-09-13 14:07:00,
2013-09-13 10:22:00,69.6,67.8,29.54,WSW,247,0.0,-999.0,94,-99.99,,,0.26,Acu-Link.com,2013-09-13 14:22:00,
2013-09-13 10:37:00,71.8,68.4,29.53,NNE,22,1.6,-999.0,89,-99.99,,,0.26,Acu-Link.com,2013-09-13 14:37:00,
2013-09-13 10:52:00,73.0,68.9,29.52,SW,225,1.6,-999.0,87,-99.99,,,0.26,Acu-Link.com,2013-09-13 14:52:00,
2013-09-13 11:07:00,73.0,68.6,29.52,SW,225,1.1,-999.0,86,-99.99,,,0.26,Acu-Link.com,2013-09-13 15:07:00,
2013-09-13 11:23:00,71.6,67.9,29.53,SW,225,1.6,-999.0,88,-99.99,,,0.26,Acu-Link.com,2013-09-13 15:23:00,
2013-09-13 11:38:00,73.8,67.6,29.52,NNE,22,1.6,-999.0,81,-99.99,,,0.26,Acu-Link.com,2013-09-13 15:38:00,
2013-09-13 11:53:00,72.9,67.0,29.53,NE,45,6.3,-999.0,82,-99.99,,,0.26,Acu-Link.com,2013-09-13 15:53:00,
2013-09-13 12:08:00,71.2,66.1,29.53,SSW,202,2.7,-999.0,84,-99.99,,,0.26,Acu-Link.com,2013-09-13 16:08:00,
2013-09-13 12:24:00,71.4,65.6,29.51,NE,45,3.1,-999.0,82,-99.99,,,0.26,Acu-Link.com,2013-09-13 16:24:00,
2013-09-13 12:39:00,73.9,66.6,29.51,SW,225,2.7,-999.0,78,-99.99,,,0.26,Acu-Link.com,2013-09-13 16:39:00,
2013-09-13 12:54:00,73.9,66.3,29.51,WNW,292,1.6,-999.0,77,-99.99,,,0.26,Acu-Link.com,2013-09-13 16:54:00,
2013-09-13 13:09:00,73.4,65.7,29.50,NNE,22,2.7,-999.0,77,-99.99,,,0.26,Acu-Link.com,2013-09-13 17:09:00,
2013-09-13 13:24:00,71.2,66.5,29.51,North,0,2.7,-999.0,85,-99.99,,,0.28,Acu-Link.com,2013-09-13 17:24:00,
2013-09-13 13:39:00,69.4,65.7,29.51,NNE,22,0.0,-999.0,88,-99.99,,,0.80,Acu-Link.com,2013-09-13 17:39:00,
2013-09-13 13:55:00,69.1,66.7,29.51,ENE,67,1.6,-999.0,92,-99.99,,,0.82,Acu-Link.com,2013-09-13 17:55:00,
2013-09-13 14:10:00,70.9,67.1,29.51,NE,45,1.6,-999.0,88,-99.99,,,0.82,Acu-Link.com,2013-09-13 18:10:00,
2013-09-13 14:25:00,70.5,67.1,29.50,South,180,1.6,-999.0,89,-99.99,,,0.82,Acu-Link.com,2013-09-13 18:25:00,
2013-09-13 14:40:00,69.6,66.6,29.50,NNW,337,3.1,-999.0,90,-99.99,,,0.82,Acu-Link.com,2013-09-13 18:40:00,
2013-09-13 14:55:00,68.2,65.1,29.51,North,0,3.8,-999.0,90,-99.99,,,0.82,Acu-Link.com,2013-09-13 18:55:00,
2013-09-13 15:11:00,68.5,65.8,29.51,NNE,22,3.8,-999.0,91,-99.99,,,0.86,Acu-Link.com,2013-09-13 19:11:00,
2013-09-13 15:26:00,68.7,66.0,29.51,North,0,3.8,-999.0,91,-99.99,,,0.86,Acu-Link.com,2013-09-13 19:26:00,
2013-09-13 15:41:00,68.0,65.3,29.52,NNE,22,3.8,-999.0,91,-99.99,,,0.86,Acu-Link.com,2013-09-13 19:41:00,
2013-09-13 15:56:00,65.3,63.2,29.52,NNE,22,3.1,-999.0,93,-99.99,,,1.35,Acu-Link.com,2013-09-13 19:56:00,
2013-09-13 16:12:00,65.1,62.7,29.54,West,270,2.2,-999.0,92,-99.99,,,1.49,Acu-Link.com,2013-09-13 20:12:00,
2013-09-13 16:27:00,65.7,63.3,29.54,North,0,4.3,-999.0,92,-99.99,,,1.49,Acu-Link.com,2013-09-13 20:27:00,
2013-09-13 16:42:00,65.7,62.6,29.55,NE,45,6.3,-999.0,90,-99.99,,,1.49,Acu-Link.com,2013-09-13 20:42:00,
2013-09-13 16:57:00,64.9,61.9,29.55,NW,315,2.7,-999.0,90,-99.99,,,1.49,Acu-Link.com,2013-09-13 20:57:00,
2013-09-13 17:12:00,64.8,62.1,29.55,WNW,292,3.1,-999.0,91,-99.99,,,1.49,Acu-Link.com,2013-09-13 21:12:00,
2013-09-13 17:28:00,64.8,61.8,29.56,West,270,1.1,-999.0,90,-99.99,,,1.49,Acu-Link.com,2013-09-13 21:28:00,
2013-09-13 17:43:00,64.2,61.2,29.56,NNE,22,2.7,-999.0,90,-99.99,,,1.49,Acu-Link.com,2013-09-13 21:43:00,
2013-09-13 17:58:00,63.7,60.7,29.57,North,0,4.7,-999.0,90,-99.99,,,1.49,Acu-Link.com,2013-09-13 21:58:00,
2013-09-13 18:13:00,63.3,60.0,29.56,SW,225,1.6,-999.0,89,-99.99,,,1.49,Acu-Link.com,2013-09-13 22:13:00,
2013-09-13 18:28:00,63.3,59.7,29.57,NE,45,1.1,-999.0,88,-99.99,,,1.49,Acu-Link.com,2013-09-13 22:28:00,
2013-09-13 18:44:00,62.8,60.1,29.57,SW,225,0.0,-999.0,91,-99.99,,,1.49,Acu-Link.com,2013-09-13 22:44:00,
2013-09-13 18:59:00,61.9,59.5,29.59,SW,225,1.6,-999.0,92,-99.99,,,1.49,Acu-Link.com,2013-09-13 22:59:00,
2013-09-13 19:14:00,61.3,59.3,29.59,SW,225,0.0,-999.0,93,-99.99,,,1.49,Acu-Link.com,2013-09-13 23:14:00,
2013-09-13 19:29:00,60.8,59.1,29.60,West,270,0.0,-999.0,94,-99.99,,,1.49,Acu-Link.com,2013-09-13 23:29:00,
2013-09-13 19:45:00,60.4,59.0,29.61,SW,225,0.0,-999.0,95,-99.99,,,1.49,Acu-Link.com,2013-09-13 23:45:00,
2013-09-13 20:00:00,60.1,58.9,29.62,WSW,247,0.0,-999.0,96,-99.99,,,1.49,Acu-Link.com,2013-09-14 00:00:00,
2013-09-13 20:15:00,59.5,58.4,29.63,SW,225,0.0,-999.0,96,-99.99,,,1.49,Acu-Link.com,2013-09-14 00:15:00,
2013-09-13 20:30:00,59.2,58.0,29.63,SW,225,0.0,-999.0,96,-99.99,,,1.49,Acu-Link.com,2013-09-14 00:30:00,
2013-09-13 20:45:00,58.8,57.7,29.64,SW,225,0.0,-999.0,96,-99.99,,,1.49,Acu-Link.com,2013-09-14 00:45:00,
2013-09-13 21:00:00,58.6,57.8,29.65,WNW,292,0.0,-999.0,97,-99.99,,,1.49,Acu-Link.com,2013-09-14 01:00:00,
2013-09-13 21:16:00,57.9,57.1,29.65,NW,315,0.0,-999.0,97,-99.99,,,1.49,Acu-Link.com,2013-09-14 01:16:00,
2013-09-13 21:31:00,57.6,56.7,29.65,West,270,0.0,-999.0,97,-99.99,,,1.49,Acu-Link.com,2013-09-14 01:31:00,
2013-09-13 21:46:00,57.0,56.2,29.66,NE,45,0.0,-999.0,97,-99.99,,,1.49,Acu-Link.com,2013-09-14 01:46:00,
2013-09-13 22:01:00,56.7,55.8,29.66,NE,45,2.2,-999.0,97,-99.99,,,1.49,Acu-Link.com,2013-09-14 02:01:00,
2013-09-13 22:16:00,56.3,55.5,29.66,WNW,292,2.7,-999.0,97,-99.99,,,1.49,Acu-Link.com,2013-09-14 02:16:00,
2013-09-13 22:32:00,55.9,54.8,29.66,West,270,1.6,-999.0,96,-99.99,,,1.49,Acu-Link.com,2013-09-14 02:32:00,
2013-09-13 22:47:00,55.8,54.6,29.67,West,270,0.0,-999.0,96,-99.99,,,1.49,Acu-Link.com,2013-09-14 02:47:00,
2013-09-13 23:02:00,55.4,54.3,29.67,West,270,0.0,-999.0,96,-99.99,,,1.49,Acu-Link.com,2013-09-14 03:02:00,
2013-09-13 23:17:00,55.0,54.2,29.67,SW,225,0.0,-999.0,97,-99.99,,,1.49,Acu-Link.com,2013-09-14 03:17:00,
2013-09-13 23:32:00,54.9,54.0,29.68,WNW,292,0.0,-999.0,97,-99.99,,,1.49,Acu-Link.com,2013-09-14 03:32:00,
2013-09-13 23:48:00,54.5,53.7,29.68,North,0,0.0,-999.0,97,-99.99,,,1.49,Acu-Link.com,2013-09-14 03:48:00,